createdAt,value
2023-01-17T00:01:33.820Z,0.80
2023-01-17T00:04:19.836Z,0.90
2023-01-17T00:07:05.233Z,1.42
2023-01-17T00:09:50.554Z,1.10
2023-01-17T00:12:18.300Z,1.00
2023-01-17T00:14:44.956Z,1.10
2023-01-17T00:17:11.811Z,0.90
2023-01-17T00:19:57.128Z,1.27
2023-01-17T00:22:47.892Z,1.30
2023-01-17T00:25:35.840Z,1.45
2023-01-17T00:28:03.009Z,1.15
2023-01-17T00:30:30.008Z,1.30
2023-01-17T00:32:56.931Z,1.45
2023-01-17T00:35:25.309Z,1.60
2023-01-17T00:38:12.098Z,1.35
2023-01-17T00:40:40.021Z,1.42
2023-01-17T00:43:26.715Z,1.90
2023-01-17T00:46:12.422Z,1.98
2023-01-17T00:48:58.323Z,1.88
2023-01-17T00:51:43.773Z,1.52
2023-01-17T00:54:29.476Z,1.60
2023-01-17T00:57:14.916Z,1.67
2023-01-17T01:00:00.183Z,1.63
2023-01-17T01:02:46.119Z,1.40
2023-01-17T01:05:32.845Z,1.55
2023-01-17T01:08:18.765Z,1.30
2023-01-17T01:11:05.832Z,1.48
2023-01-17T01:13:51.620Z,1.70
2023-01-17T01:16:37.932Z,1.42
2023-01-17T01:19:24.626Z,1.60
2023-01-17T01:22:10.094Z,1.55
2023-01-17T01:24:55.614Z,1.70
2023-01-17T01:27:40.936Z,2.38
2023-01-17T01:30:26.820Z,1.48
2023-01-17T01:33:12.071Z,1.10
2023-01-17T01:35:38.708Z,1.52
2023-01-17T01:38:05.427Z,1.63
2023-01-17T01:40:32.131Z,1.98
2023-01-17T01:43:00.115Z,1.88
2023-01-17T01:45:32.165Z,1.83
2023-01-17T01:48:05.706Z,1.30
2023-01-17T01:50:34.364Z,1.35
2023-01-17T01:53:03.076Z,1.25
2023-01-17T01:55:36.177Z,1.40
2023-01-17T01:58:09.200Z,1.67
2023-01-17T02:00:36.830Z,1.77
2023-01-17T02:03:07.456Z,1.60
2023-01-17T02:05:35.090Z,1.10
2023-01-17T02:08:10.301Z,1.40
2023-01-17T02:10:38.514Z,1.63
2023-01-17T02:13:06.990Z,1.70
2023-01-17T02:15:49.370Z,1.42
2023-01-17T02:18:54.025Z,1.60
2023-01-17T02:21:26.403Z,1.15
2023-01-17T02:24:21.128Z,1.30
2023-01-17T02:26:55.931Z,1.33
2023-01-17T02:32:21.107Z,1.38
2023-01-17T02:34:54.483Z,1.33
2023-01-17T02:37:28.863Z,1.65
2023-01-17T02:40:10.709Z,1.27
2023-01-17T02:42:54.176Z,1.20
2023-01-17T02:45:21.434Z,1.30
2023-01-17T02:47:48.079Z,1.20
2023-01-17T02:50:37.837Z,1.17
2023-01-17T02:53:17.520Z,1.08
2023-01-17T02:56:02.102Z,1.25
2023-01-17T02:58:57.706Z,1.30
2023-01-17T03:01:58.798Z,1.30
2023-01-17T03:04:48.256Z,1.02
2023-01-17T03:07:17.580Z,1.50
2023-01-17T03:09:45.829Z,1.10
2023-01-17T03:12:12.894Z,1.30
2023-01-17T03:14:39.577Z,1.40
2023-01-17T03:17:06.397Z,1.27
2023-01-17T03:19:33.627Z,1.15
2023-01-17T03:22:00.461Z,1.10
2023-01-17T03:24:27.109Z,1.15
2023-01-17T03:26:53.915Z,1.92
2023-01-17T03:29:20.563Z,1.60
2023-01-17T03:31:47.203Z,1.10
2023-01-17T03:34:13.888Z,1.70
2023-01-17T03:36:40.549Z,1.23
2023-01-17T03:39:07.280Z,1.60
2023-01-17T03:41:33.975Z,1.00
2023-01-17T03:44:00.878Z,0.90
2023-01-17T03:46:31.337Z,0.80
2023-01-17T03:48:58.287Z,0.85
2023-01-17T03:51:24.996Z,0.98
2023-01-17T03:53:51.974Z,0.70
2023-01-17T03:56:18.755Z,0.60
2023-01-17T03:58:45.736Z,0.70
2023-01-17T04:01:13.134Z,0.80
2023-01-17T04:03:39.911Z,0.90
2023-01-17T04:06:06.879Z,0.60
2023-01-17T04:08:33.569Z,0.60
2023-01-17T04:11:00.288Z,0.60
2023-01-17T04:13:26.970Z,0.47
2023-01-17T04:15:53.630Z,0.50
2023-01-17T04:18:22.945Z,0.50
2023-01-17T04:20:50.682Z,0.52
2023-01-17T04:23:17.740Z,0.90
2023-01-17T04:25:44.506Z,0.70
2023-01-17T04:28:13.809Z,0.70
2023-01-17T04:30:40.626Z,1.13
2023-01-17T04:33:07.399Z,1.40
2023-01-17T04:35:34.162Z,1.38
2023-01-17T04:38:00.985Z,1.25
2023-01-17T04:40:28.217Z,1.20
2023-01-17T04:42:55.439Z,1.45
2023-01-17T04:45:22.097Z,1.20
2023-01-17T04:47:48.833Z,1.35
2023-01-17T04:50:15.796Z,1.48
2023-01-17T04:52:42.556Z,1.30
2023-01-17T04:55:09.471Z,1.63
2023-01-17T04:57:36.267Z,1.75
2023-01-17T05:00:04.398Z,1.50
2023-01-17T05:02:31.193Z,1.50
2023-01-17T05:04:57.916Z,1.40
2023-01-17T05:07:24.762Z,1.60
2023-01-17T05:09:51.451Z,1.50
2023-01-17T05:12:18.336Z,1.73
2023-01-17T05:14:44.988Z,1.17
2023-01-17T05:17:11.680Z,1.50
2023-01-17T05:19:38.314Z,1.67
2023-01-17T05:22:14.757Z,1.70
2023-01-17T05:24:46.056Z,1.63
2023-01-17T05:27:14.023Z,1.25
2023-01-17T05:29:40.927Z,1.30
2023-01-17T05:32:07.665Z,1.27
2023-01-17T05:34:34.950Z,1.50
2023-01-17T05:37:01.567Z,1.30
2023-01-17T05:39:28.335Z,1.45
2023-01-17T05:41:54.984Z,1.08
2023-01-17T05:44:21.820Z,1.08
2023-01-17T05:46:48.496Z,1.48
2023-01-17T05:49:15.174Z,1.10
2023-01-17T05:51:41.829Z,1.38
2023-01-17T05:54:08.683Z,1.00
2023-01-17T05:56:35.374Z,0.93
2023-01-17T05:59:02.050Z,1.33
2023-01-17T06:01:28.785Z,1.50
2023-01-17T06:03:55.524Z,2.30
2023-01-17T06:06:22.327Z,1.45
2023-01-17T06:08:49.132Z,1.17
2023-01-17T06:11:15.805Z,0.80
2023-01-17T06:13:42.458Z,1.08
2023-01-17T06:16:09.220Z,0.68
2023-01-17T06:18:35.977Z,1.17
2023-01-17T06:21:02.658Z,0.75
2023-01-17T06:23:29.803Z,1.30
2023-01-17T06:25:56.521Z,2.50
2023-01-17T06:28:23.360Z,4.18
2023-01-17T06:30:50.260Z,2.20
2023-01-17T06:33:17.245Z,1.08
2023-01-17T06:35:51.814Z,1.25
2023-01-17T06:38:18.896Z,0.90
2023-01-17T06:40:45.619Z,0.85
2023-01-17T06:43:12.319Z,1.02
2023-01-17T06:45:39.059Z,0.80
2023-01-17T06:48:06.088Z,0.60
2023-01-17T06:50:34.314Z,0.80
2023-01-17T06:53:03.789Z,0.95
2023-01-17T06:55:33.521Z,0.70
2023-01-17T06:58:02.411Z,0.95
2023-01-17T07:00:30.958Z,0.98
2023-01-17T07:02:57.867Z,0.63
2023-01-17T07:05:24.751Z,0.80
2023-01-17T07:07:51.538Z,0.98
2023-01-17T07:10:18.377Z,0.90
2023-01-17T07:12:45.109Z,0.95
2023-01-17T07:15:12.156Z,0.77
2023-01-17T07:17:38.975Z,0.68
2023-01-17T07:20:06.297Z,0.70
2023-01-17T07:22:33.050Z,0.80
2023-01-17T07:25:00.247Z,0.98
2023-01-17T07:27:30.277Z,0.80
2023-01-17T07:29:57.496Z,0.82
2023-01-17T07:32:26.482Z,0.55
2023-01-17T07:34:53.888Z,0.75
2023-01-17T07:37:20.745Z,0.80
2023-01-17T07:39:47.380Z,0.70
2023-01-17T07:42:14.076Z,0.98
2023-01-17T07:44:43.862Z,1.00
2023-01-17T07:47:11.183Z,0.82
2023-01-17T07:49:38.178Z,0.93
2023-01-17T07:52:07.421Z,0.82
2023-01-17T07:54:34.369Z,1.15
2023-01-17T07:57:01.796Z,0.93
2023-01-17T07:59:28.599Z,0.90
2023-01-17T08:01:55.322Z,0.90
2023-01-17T08:04:25.705Z,1.08
2023-01-17T08:06:54.300Z,0.90
2023-01-17T08:09:21.131Z,1.17
2023-01-17T08:11:47.779Z,0.80
2023-01-17T08:14:14.436Z,0.88
2023-01-17T08:16:41.905Z,0.75
2023-01-17T08:19:08.656Z,1.08
2023-01-17T08:21:35.314Z,1.00
2023-01-17T08:24:02.040Z,1.10
2023-01-17T08:26:28.671Z,0.82
2023-01-17T08:29:02.411Z,0.90
2023-01-17T08:31:31.334Z,1.00
2023-01-17T08:33:58.225Z,1.05
2023-01-17T08:36:28.580Z,1.00
2023-01-17T08:38:55.338Z,1.15
2023-01-17T08:41:23.196Z,1.00
2023-01-17T08:43:51.170Z,1.25
2023-01-17T08:46:18.770Z,0.90
2023-01-17T08:48:45.644Z,1.00
2023-01-17T08:51:12.494Z,1.25
2023-01-17T08:53:39.319Z,0.90
2023-01-17T08:56:06.478Z,1.13
2023-01-17T08:58:34.893Z,1.05
2023-01-17T09:01:06.032Z,1.45
2023-01-17T09:03:33.968Z,1.30
2023-01-17T09:06:12.607Z,1.02
2023-01-17T09:08:39.796Z,1.08
2023-01-17T09:11:08.421Z,1.10
2023-01-17T09:13:35.445Z,1.10
2023-01-17T09:16:02.980Z,1.30
2023-01-17T09:18:30.663Z,1.20
2023-01-17T09:20:59.152Z,1.17
2023-01-17T09:23:27.981Z,1.05
2023-01-17T09:25:55.384Z,0.93
2023-01-17T09:28:22.527Z,1.02
2023-01-17T09:30:49.526Z,1.30
2023-01-17T09:33:17.506Z,0.80
2023-01-17T09:35:45.225Z,0.80
2023-01-17T09:38:12.807Z,1.00
2023-01-17T09:40:44.470Z,0.98
2023-01-17T09:43:30.141Z,0.90
2023-01-17T09:45:57.036Z,1.05
2023-01-17T09:48:38.038Z,0.75
2023-01-17T09:51:15.054Z,0.73
2023-01-17T09:53:43.789Z,0.80
2023-01-17T09:56:20.899Z,0.88
2023-01-17T09:59:01.455Z,0.93
2023-01-17T10:02:09.714Z,0.70
2023-01-17T10:05:14.580Z,0.70
2023-01-17T10:08:04.671Z,0.60
2023-01-17T10:10:47.544Z,1.50
2023-01-17T10:13:40.511Z,1.10
2023-01-17T10:16:10.372Z,0.90
2023-01-17T10:19:00.700Z,0.65
2023-01-17T10:21:49.565Z,0.70
2023-01-17T10:24:31.389Z,0.50
2023-01-17T10:26:58.892Z,0.73
2023-01-17T10:29:28.128Z,0.65
2023-01-17T10:32:02.092Z,0.70
2023-01-17T10:34:44.984Z,0.77
2023-01-17T10:37:23.434Z,0.57
2023-01-17T10:39:51.116Z,0.70
2023-01-17T10:42:27.899Z,0.70
2023-01-17T10:45:04.559Z,0.60
2023-01-17T10:47:35.087Z,0.88
2023-01-17T10:50:05.092Z,0.65
2023-01-17T10:52:47.284Z,0.98
2023-01-17T10:55:48.000Z,0.65
2023-01-17T10:58:14.823Z,0.80
2023-01-17T11:00:45.363Z,0.80
2023-01-17T11:03:14.463Z,1.10
2023-01-17T11:05:42.742Z,1.05
2023-01-17T11:08:15.842Z,0.90
2023-01-17T11:10:44.898Z,1.33
2023-01-17T11:13:34.293Z,1.17
2023-01-17T11:16:03.455Z,1.70
2023-01-17T11:18:32.383Z,1.48
2023-01-17T11:21:23.215Z,1.02
2023-01-17T11:23:56.763Z,1.10
2023-01-17T11:26:34.701Z,1.08
2023-01-17T11:29:26.663Z,1.05
2023-01-17T11:31:55.525Z,1.20
2023-01-17T11:34:27.260Z,1.38
2023-01-17T11:37:17.475Z,1.23
2023-01-17T11:39:47.966Z,1.40
2023-01-17T11:42:36.225Z,1.48
2023-01-17T11:45:21.899Z,1.40
2023-01-17T11:47:48.672Z,1.50
2023-01-17T11:50:26.033Z,1.30
2023-01-17T11:52:52.769Z,1.20
2023-01-17T11:55:22.895Z,1.63
2023-01-17T11:57:50.663Z,1.20
2023-01-17T12:00:46.032Z,1.20
2023-01-17T12:03:18.891Z,1.10
2023-01-17T12:05:53.424Z,1.30
2023-01-17T12:08:30.643Z,1.40
2023-01-17T12:11:01.119Z,1.00
2023-01-17T12:14:01.539Z,1.23
2023-01-17T12:17:05.941Z,1.45
2023-01-17T12:20:01.079Z,2.85
2023-01-17T12:22:43.934Z,0.98
2023-01-17T12:25:24.582Z,1.23
2023-01-17T12:28:15.460Z,1.00
2023-01-17T12:31:11.521Z,1.10
2023-01-17T12:33:57.723Z,1.42
2023-01-17T12:36:42.488Z,1.25
2023-01-17T12:39:11.871Z,1.05
2023-01-17T12:41:44.780Z,1.25
2023-01-17T12:44:13.970Z,1.40
2023-01-17T12:46:47.145Z,1.40
2023-01-17T12:49:23.786Z,1.00
2023-01-17T12:51:58.776Z,1.10
2023-01-17T12:54:43.015Z,0.90
2023-01-17T12:57:15.413Z,1.00
2023-01-17T13:00:03.837Z,0.88
2023-01-17T13:02:44.165Z,1.10
2023-01-17T13:05:23.730Z,1.20
2023-01-17T13:08:03.039Z,0.80
2023-01-17T13:10:47.704Z,3.03
2023-01-17T13:13:26.169Z,2.55
2023-01-17T13:16:05.534Z,1.38
2023-01-17T13:18:33.283Z,1.20
2023-01-17T13:21:04.659Z,3.42
2023-01-17T13:24:07.826Z,2.25
2023-01-17T13:26:44.224Z,2.15
2023-01-17T13:29:30.081Z,1.60
2023-01-17T13:32:08.679Z,1.05
2023-01-17T13:34:57.460Z,1.80
2023-01-17T13:37:30.038Z,1.08
2023-01-17T13:40:29.526Z,1.60
2023-01-17T13:43:00.029Z,3.13
2023-01-17T13:45:37.067Z,2.80
2023-01-17T13:48:12.679Z,3.08
2023-01-17T13:50:58.394Z,1.42
2023-01-17T13:53:34.260Z,1.88
2023-01-17T13:56:31.514Z,2.72
2023-01-17T13:59:03.155Z,1.30
2023-01-17T14:01:34.680Z,2.00
2023-01-17T14:04:03.201Z,1.65
2023-01-17T14:06:40.982Z,2.10
2023-01-17T14:09:21.596Z,1.52
2023-01-17T14:12:17.023Z,3.00
2023-01-17T14:14:49.145Z,1.90
2023-01-17T14:17:20.302Z,1.48
2023-01-17T14:19:49.944Z,2.55
2023-01-17T14:22:26.880Z,1.58
2023-01-17T14:25:05.284Z,0.90
2023-01-17T14:27:38.105Z,1.27
2023-01-17T14:30:16.788Z,1.20
2023-01-17T14:33:08.518Z,1.20
2023-01-17T14:35:40.608Z,2.90
2023-01-17T14:38:21.831Z,1.42
2023-01-17T14:40:57.155Z,2.15
2023-01-17T14:43:25.961Z,2.33
2023-01-17T14:46:08.046Z,2.28
2023-01-17T14:48:34.860Z,2.30
2023-01-17T14:51:01.823Z,1.90
2023-01-17T14:53:30.636Z,1.80
2023-01-17T14:56:00.506Z,1.30
2023-01-17T14:58:34.867Z,1.10
2023-01-17T15:01:21.923Z,2.22
2023-01-17T15:03:50.940Z,1.95
2023-01-17T15:06:21.007Z,2.53
2023-01-17T15:08:48.233Z,1.55
2023-01-17T15:11:26.372Z,2.08
2023-01-17T15:13:57.248Z,2.50
2023-01-17T15:16:25.026Z,2.55
2023-01-17T15:18:53.359Z,2.50
2023-01-17T15:21:22.282Z,2.78
2023-01-17T15:24:02.801Z,2.90
2023-01-17T15:26:33.800Z,4.65
2023-01-17T15:29:06.781Z,15.98
2023-01-17T15:31:46.192Z,24.02
2023-01-17T15:34:24.268Z,6.20
2023-01-17T15:36:51.221Z,1.83
2023-01-17T15:39:23.630Z,1.70
2023-01-17T15:41:54.759Z,1.10
2023-01-17T15:44:39.074Z,1.85
2023-01-17T15:47:38.503Z,2.40
2023-01-17T15:50:21.068Z,2.20
2023-01-17T15:52:53.264Z,2.05
2023-01-17T15:55:47.885Z,2.10
2023-01-17T15:58:27.154Z,1.40
2023-01-17T16:00:54.461Z,1.48
2023-01-17T16:03:24.300Z,1.20
2023-01-17T16:05:52.940Z,1.60
2023-01-17T16:08:28.690Z,1.30
2023-01-17T16:11:02.136Z,1.27
2023-01-17T16:13:31.004Z,1.30
2023-01-17T16:16:30.190Z,1.27
2023-01-17T16:18:59.955Z,1.15
2023-01-17T16:21:28.800Z,1.13
2023-01-17T16:23:56.356Z,3.60
2023-01-17T16:26:23.834Z,8.98
2023-01-17T16:28:50.973Z,2.50
2023-01-17T16:31:18.370Z,2.08
2023-01-17T16:33:46.008Z,1.80
2023-01-17T16:36:14.954Z,4.72
2023-01-17T16:38:42.798Z,10.05
2023-01-17T16:41:09.657Z,8.00
2023-01-17T16:43:36.409Z,7.68
2023-01-17T16:46:03.133Z,10.57
2023-01-17T16:48:29.801Z,14.65
2023-01-17T16:50:56.488Z,5.78
2023-01-17T16:53:25.799Z,4.22
2023-01-17T16:55:55.453Z,3.70
2023-01-17T16:58:22.411Z,6.75
2023-01-17T17:00:49.342Z,5.03
2023-01-17T17:03:17.556Z,2.75
2023-01-17T17:05:47.057Z,3.17
2023-01-17T17:08:15.442Z,2.47
2023-01-17T17:10:42.402Z,3.28
2023-01-17T17:13:09.175Z,3.17
2023-01-17T17:15:40.158Z,3.35
2023-01-17T17:18:06.821Z,5.53
2023-01-17T17:20:33.540Z,4.30
2023-01-17T17:23:00.216Z,3.85
2023-01-17T17:25:26.916Z,2.30
2023-01-17T17:27:53.969Z,2.92
2023-01-17T17:30:20.772Z,2.95
2023-01-17T17:32:47.574Z,2.78
2023-01-17T17:35:14.353Z,2.33
2023-01-17T17:37:41.059Z,2.42
2023-01-17T17:40:08.532Z,2.90
2023-01-17T17:42:35.247Z,2.28
2023-01-17T17:45:01.966Z,3.45
2023-01-17T17:47:30.426Z,3.30
2023-01-17T17:49:57.225Z,3.30
2023-01-17T17:52:23.957Z,2.78
2023-01-17T17:54:50.615Z,3.40
2023-01-17T17:57:17.281Z,3.28
2023-01-17T17:59:43.998Z,2.70
2023-01-17T18:02:11.591Z,3.72
2023-01-17T18:04:38.563Z,2.95
2023-01-17T18:07:05.335Z,3.20
2023-01-17T18:09:32.027Z,2.97
2023-01-17T18:11:58.745Z,3.00
2023-01-17T18:14:25.391Z,3.72
2023-01-17T18:16:52.146Z,3.50
2023-01-17T18:19:24.296Z,3.38
2023-01-17T18:21:51.507Z,3.47
2023-01-17T18:24:23.049Z,4.28
2023-01-17T18:26:51.925Z,3.15
2023-01-17T18:29:20.770Z,3.47
2023-01-17T18:31:49.980Z,3.60
2023-01-17T18:34:23.091Z,4.47
2023-01-17T18:36:50.679Z,3.30
2023-01-17T18:39:19.970Z,3.17
2023-01-17T18:41:47.231Z,4.18
2023-01-17T18:44:14.045Z,4.55
2023-01-17T18:46:42.018Z,3.80
2023-01-17T18:49:12.770Z,4.03
2023-01-17T18:51:39.433Z,3.70
2023-01-17T18:54:08.586Z,3.78
2023-01-17T18:56:35.647Z,3.83
2023-01-17T18:59:03.095Z,3.92
2023-01-17T19:01:32.997Z,4.10
2023-01-17T19:04:03.028Z,4.32
2023-01-17T19:06:33.111Z,3.92
2023-01-17T19:09:01.412Z,3.95
2023-01-17T19:11:28.883Z,3.83
2023-01-17T19:14:01.884Z,3.60
2023-01-17T19:16:34.976Z,3.72
2023-01-17T19:19:07.563Z,3.75
2023-01-17T19:21:34.389Z,3.70
2023-01-17T19:24:01.403Z,3.90
2023-01-17T19:26:28.492Z,4.13
2023-01-17T19:28:57.591Z,3.72
2023-01-17T19:31:28.996Z,3.85
2023-01-17T19:33:57.495Z,4.65
2023-01-17T19:36:26.878Z,4.05
2023-01-17T19:39:03.931Z,3.97
2023-01-17T19:41:32.062Z,5.00
2023-01-17T19:44:09.511Z,4.38
2023-01-17T19:46:36.813Z,4.10
2023-01-17T19:49:05.865Z,4.68
2023-01-17T19:51:32.646Z,4.20
2023-01-17T19:54:01.107Z,4.00
2023-01-17T19:56:28.251Z,4.72
2023-01-17T19:58:57.166Z,5.07
2023-01-17T20:01:30.038Z,4.28
2023-01-17T20:03:58.491Z,3.97
2023-01-17T20:06:28.780Z,4.45
2023-01-17T20:08:55.985Z,4.80
2023-01-17T20:11:25.002Z,5.15
2023-01-17T20:13:54.170Z,4.63
2023-01-17T20:16:21.946Z,4.80
2023-01-17T20:18:50.332Z,4.18
2023-01-17T20:21:22.721Z,4.78
2023-01-17T20:23:50.165Z,4.80
2023-01-17T20:26:25.421Z,4.60
2023-01-17T20:28:53.204Z,4.90
2023-01-17T20:31:22.467Z,4.50
2023-01-17T20:33:52.506Z,4.65
2023-01-17T20:36:20.924Z,3.58
2023-01-17T20:38:48.619Z,3.92
2023-01-17T20:41:22.644Z,3.95
2023-01-17T20:43:54.868Z,3.63
2023-01-17T20:46:23.508Z,3.75
2023-01-17T20:48:52.922Z,2.92
2023-01-17T20:51:21.086Z,3.70
2023-01-17T20:53:52.349Z,3.58
2023-01-17T20:56:19.627Z,3.60
2023-01-17T20:58:46.696Z,3.55
2023-01-17T21:01:19.462Z,4.50
2023-01-17T21:03:47.994Z,4.50
2023-01-17T21:06:15.290Z,4.43
2023-01-17T21:08:44.459Z,4.88
2023-01-17T21:11:13.198Z,4.78
2023-01-17T21:13:40.772Z,5.22
2023-01-17T21:16:09.258Z,5.15
2023-01-17T21:18:36.200Z,5.00
2023-01-17T21:21:23.085Z,4.80
2023-01-17T21:23:51.166Z,4.55
2023-01-17T21:26:20.730Z,4.30
2023-01-17T21:28:48.821Z,5.22
2023-01-17T21:31:20.332Z,5.90
2023-01-17T21:33:47.917Z,5.63
2023-01-17T21:36:14.673Z,4.50
2023-01-17T21:38:41.335Z,5.15
2023-01-17T21:41:07.964Z,5.47
2023-01-17T21:43:35.004Z,6.00
2023-01-17T21:46:03.300Z,5.32
2023-01-17T21:48:30.498Z,5.70
2023-01-17T21:51:04.165Z,5.47
2023-01-17T21:53:33.038Z,4.40
2023-01-17T21:56:19.660Z,4.88
2023-01-17T21:58:49.277Z,4.95
2023-01-17T22:01:21.523Z,4.80
2023-01-17T22:03:53.537Z,5.35
2023-01-17T22:06:21.704Z,5.70
2023-01-17T22:08:48.545Z,4.22
2023-01-17T22:11:18.975Z,5.00
2023-01-17T22:13:46.148Z,4.13
2023-01-17T22:16:15.521Z,4.53
2023-01-17T22:18:43.135Z,3.90
2023-01-17T22:21:19.079Z,3.90
2023-01-17T22:23:51.601Z,3.88
2023-01-17T22:26:19.299Z,3.30
2023-01-17T22:28:46.233Z,3.60
2023-01-17T22:31:21.376Z,3.17
2023-01-17T22:33:58.840Z,2.95
2023-01-17T22:36:25.848Z,2.70
2023-01-17T22:38:52.688Z,2.28
2023-01-17T22:41:21.667Z,2.72
2023-01-17T22:43:50.528Z,4.00
2023-01-17T22:46:23.424Z,3.95
2023-01-17T22:48:50.409Z,5.75
2023-01-17T22:51:18.807Z,3.63
2023-01-17T22:53:48.054Z,2.75
2023-01-17T22:56:23.103Z,2.53
2023-01-17T22:58:50.326Z,2.90
2023-01-17T23:01:18.554Z,3.13
2023-01-17T23:03:46.703Z,2.70
2023-01-17T23:06:13.713Z,2.85
2023-01-17T23:08:42.578Z,3.70
2023-01-17T23:11:42.362Z,3.45
2023-01-17T23:14:51.832Z,2.58
2023-01-17T23:17:41.035Z,2.50
2023-01-17T23:20:10.275Z,2.35
2023-01-17T23:22:37.306Z,2.33
2023-01-17T23:25:08.045Z,1.85
2023-01-17T23:28:11.098Z,1.95
2023-01-17T23:30:40.216Z,2.03
2023-01-17T23:33:15.333Z,2.15
2023-01-17T23:35:44.347Z,2.45
2023-01-17T23:38:30.738Z,2.15
2023-01-17T23:41:21.184Z,2.50
2023-01-17T23:43:55.933Z,3.53
2023-01-17T23:46:24.434Z,4.78
2023-01-17T23:48:51.299Z,3.30
2023-01-17T23:51:18.411Z,3.00
2023-01-17T23:53:45.065Z,2.55
2023-01-17T23:56:20.395Z,2.72
2023-01-17T23:58:47.199Z,2.85
